Time;durP1;ratioP1;P1;durP2;ratioP2;P2;SDS_P1;SDS_P2;PMS_P1;PMS_P2;Temp;Humidity;BMP_temperature;BMP_pressure;BME280_temperature;BME280_humidity;BME280_pressure;Samples;Min_cycle;Max_cycle;Signal;HPM_P1;HPM_P2
2022/04/04 00:00:24;;;;;;;20.87;13.47;;;;;;;2.71;100.00;98512.23;1759575;80;21064;-70
2022/04/04 00:02:53;;;;;;;21.73;13.00;;;;;;;2.72;100.00;98509.06;1761589;80;21009;-69
2022/04/04 00:05:21;;;;;;;19.67;11.90;;;;;;;2.71;100.00;98511.38;1757290;80;21573;-69
2022/04/04 00:07:49;;;;;;;19.47;12.27;;;;;;;2.72;100.00;98514.39;1760836;80;21030;-70
2022/04/04 00:10:16;;;;;;;19.40;11.93;;;;;;;2.72;100.00;98523.73;1752765;80;21029;-70
2022/04/04 00:12:45;;;;;;;20.50;12.30;;;;;;;2.70;100.00;98527.06;1781030;80;21014;-69
2022/04/04 00:15:12;;;;;;;19.00;12.07;;;;;;;2.64;100.00;98532.04;1759469;80;21554;-71
2022/04/04 00:17:40;;;;;;;20.20;11.87;;;;;;;2.65;100.00;98532.86;1759536;80;21057;-70
2022/04/04 00:20:11;;;;;;;18.07;10.90;;;;;;;2.60;100.00;98541.36;1782203;80;21117;-70
2022/04/04 00:22:38;;;;;;;17.50;10.97;;;;;;;2.58;100.00;98541.16;1777062;80;21021;-70
2022/04/04 00:25:06;;;;;;;20.00;11.77;;;;;;;2.59;100.00;98547.68;1777597;80;20999;-69
2022/04/04 00:27:33;;;;;;;19.63;12.53;;;;;;;2.60;100.00;98548.03;1777328;80;20994;-70
2022/04/04 00:30:00;;;;;;;18.67;11.37;;;;;;;2.60;100.00;98544.03;1756957;80;21030;-69
2022/04/04 00:32:27;;;;;;;17.83;11.10;;;;;;;2.60;100.00;98548.03;1789074;80;21037;-71
2022/04/04 00:34:55;;;;;;;19.57;10.87;;;;;;;2.57;100.00;98553.67;1761839;80;21049;-70
2022/04/04 00:37:23;;;;;;;18.77;11.50;;;;;;;2.56;100.00;98553.32;1784138;80;21630;-70
2022/04/04 00:39:50;;;;;;;16.80;10.20;;;;;;;2.56;100.00;98558.66;1760206;80;21006;-69
2022/04/04 00:42:17;;;;;;;16.23;10.27;;;;;;;2.58;100.00;98555.33;1779623;80;21002;-70
2022/04/04 00:44:45;;;;;;;17.07;10.53;;;;;;;2.59;100.00;98558.36;1783553;80;21537;-70
2022/04/04 00:47:13;;;;;;;16.93;10.40;;;;;;;2.60;100.00;98553.37;1780806;80;21018;-70
2022/04/04 00:49:40;;;;;;;15.63;10.03;;;;;;;2.57;100.00;98559.02;1784016;80;21092;-70
2022/04/04 00:52:08;;;;;;;16.93;10.63;;;;;;;2.56;100.00;98561.33;1781297;80;21049;-69
2022/04/04 00:54:36;;;;;;;18.20;9.87;;;;;;;2.53;100.00;98562.97;1777376;80;21003;-68
2022/04/04 00:57:03;;;;;;;17.93;9.90;;;;;;;2.49;100.00;98561.61;1766110;81;21048;-70
2022/04/04 00:59:31;;;;;;;18.97;10.53;;;;;;;2.46;100.00;98569.92;1776128;81;21028;-69
2022/04/04 01:01:59;;;;;;;19.00;10.57;;;;;;;2.45;100.00;98569.59;1777260;80;21095;-70
2022/04/04 01:04:27;;;;;;;17.93;10.53;;;;;;;2.44;100.00;98577.24;1776133;80;21012;-70
2022/04/04 01:06:58;;;;;;;15.13;9.83;;;;;;;2.44;100.00;98574.58;1770418;80;21036;-70
2022/04/04 01:09:26;;;;;;;15.50;9.17;;;;;;;2.41;100.00;98580.25;1774731;80;21533;-69
2022/04/04 01:12:13;;;;;;;15.97;9.47;;;;;;;2.40;100.00;98579.89;1770789;81;21497;-70
2022/04/04 01:14:47;;;;;;;18.13;10.17;;;;;;;2.38;100.00;98584.55;1741534;80;21116;-70
2022/04/04 01:17:16;;;;;;;15.63;9.23;;;;;;;2.36;100.00;98579.87;1773947;81;21533;-69
2022/04/04 01:19:45;;;;;;;17.10;9.97;;;;;;;2.36;100.00;98584.70;1776305;80;21471;-70
2022/04/04 01:22:14;;;;;;;17.43;10.27;;;;;;;2.36;100.00;98590.54;1748472;80;21059;-70
2022/04/04 01:24:43;;;;;;;18.40;10.60;;;;;;;2.31;100.00;98592.83;1775644;81;21041;-70
2022/04/04 01:27:12;;;;;;;17.83;10.37;;;;;;;2.27;100.00;98598.46;1778443;80;21067;-70
2022/04/04 01:29:39;;;;;;;15.17;9.50;;;;;;;2.24;100.00;98600.59;1775962;80;21623;-70
2022/04/04 01:32:08;;;;;;;14.87;9.47;;;;;;;2.24;100.00;98600.59;1773271;81;21039;-70
2022/04/04 01:34:36;;;;;;;15.63;9.53;;;;;;;2.24;100.00;98601.93;1775875;80;21544;-70
2022/04/04 01:37:05;;;;;;;16.13;9.93;;;;;;;2.23;100.00;98602.91;1770886;80;21032;-69
2022/04/04 01:39:32;;;;;;;16.00;9.80;;;;;;;2.21;100.00;98599.09;1774038;80;21079;-69
2022/04/04 01:42:00;;;;;;;17.37;10.13;;;;;;;2.21;100.00;98601.76;1773386;81;21178;-69
2022/04/04 01:44:27;;;;;;;15.67;9.63;;;;;;;2.21;100.00;98600.42;1759485;80;21048;-70
2022/04/04 01:46:55;;;;;;;15.50;9.23;;;;;;;2.19;100.00;98605.05;1774928;80;21013;-70
2022/04/04 01:49:22;;;;;;;14.47;8.83;;;;;;;2.18;100.00;98608.72;1746573;81;21038;-69
2022/04/04 01:51:50;;;;;;;15.83;9.23;;;;;;;2.17;100.00;98605.70;1778142;80;21056;-69
2022/04/04 01:54:17;;;;;;;16.80;9.57;;;;;;;2.16;100.00;98607.18;1749378;82;21033;-70
2022/04/04 01:56:44;;;;;;;16.20;9.33;;;;;;;2.16;100.00;98614.70;1761135;81;21001;-68
2022/04/04 01:59:11;;;;;;;16.30;8.97;;;;;;;2.15;100.00;98618.35;1746311;81;21482;-70
2022/04/04 02:01:39;;;;;;;16.27;9.03;;;;;;;2.13;100.00;98616.34;1776114;81;21071;-68
2022/04/04 02:04:09;;;;;;;16.50;9.33;;;;;;;2.12;100.00;98617.81;1770952;81;21001;-69
2022/04/04 02:06:39;;;;;;;18.40;10.40;;;;;;;2.11;100.00;98616.98;1747299;80;21044;-69
2022/04/04 02:09:07;;;;;;;17.63;9.73;;;;;;;2.11;100.00;98616.13;1746635;81;21024;-70
2022/04/04 02:11:35;;;;;;;20.60;11.10;;;;;;;2.08;100.00;98623.45;1752029;81;21044;-70
2022/04/04 02:14:03;;;;;;;17.23;10.00;;;;;;;2.06;100.00;98624.09;1775183;80;21044;-70
2022/04/04 02:16:30;;;;;;;17.63;9.93;;;;;;;2.07;100.00;98623.13;1746968;81;21080;-69
2022/04/04 02:18:58;;;;;;;16.53;9.60;;;;;;;2.08;100.00;98623.95;1746865;81;21064;-69
2022/04/04 02:21:26;;;;;;;17.70;9.80;;;;;;;2.09;100.00;98628.30;1776317;81;21047;-69
2022/04/04 02:23:53;;;;;;;18.43;9.70;;;;;;;2.09;100.00;98626.97;1745612;81;21560;-70
2022/04/04 02:26:21;;;;;;;17.00;9.10;;;;;;;2.10;100.00;98639.30;1777661;80;21078;-68
2022/04/04 02:28:49;;;;;;;15.13;8.53;;;;;;;2.09;100.00;98639.80;1749712;81;21076;-69
2022/04/04 02:31:16;;;;;;;15.23;8.53;;;;;;;2.07;100.00;98636.92;1776231;81;21063;-69
2022/04/04 02:33:44;;;;;;;12.40;7.90;;;;;;;2.04;100.00;98640.75;1776039;81;21087;-70
2022/04/04 02:36:11;;;;;;;14.93;7.93;;;;;;;2.04;100.00;98647.91;1775915;81;21013;-70
2022/04/04 02:38:39;;;;;;;15.27;8.80;;;;;;;2.05;100.00;98648.24;1722223;81;21017;-70
2022/04/04 02:41:08;;;;;;;14.40;8.07;;;;;;;2.06;100.00;98653.42;1759954;81;21005;-69
2022/04/04 02:43:35;;;;;;;9.30;6.00;;;;;;;2.07;100.00;98664.92;1765166;81;21099;-70
2022/04/04 02:46:02;;;;;;;9.20;5.27;;;;;;;1.96;100.00;98672.64;1746141;81;21032;-70
2022/04/04 02:48:30;;;;;;;6.97;4.97;;;;;;;1.73;100.00;98681.53;1746056;81;21048;-71
2022/04/04 02:50:57;;;;;;;8.53;4.37;;;;;;;1.50;100.00;98690.41;1776150;81;21103;-69
2022/04/04 02:53:24;;;;;;;8.50;4.77;;;;;;;1.38;100.00;98699.56;1776765;80;20972;-69
2022/04/04 02:58:38;;;;;;;11.07;5.53;;;;;;;1.16;100.00;98699.42;1749419;81;21095;-70
2022/04/04 03:01:05;;;;;;;13.13;6.43;;;;;;;1.04;100.00;98706.23;1775335;80;21052;-70
2022/04/04 03:03:33;;;;;;;10.40;6.10;;;;;;;0.99;100.00;98704.48;1748958;81;21079;-69
2022/04/04 03:06:00;;;;;;;12.27;6.50;;;;;;;0.99;100.00;98703.66;1768690;80;21063;-70
2022/04/04 03:08:27;;;;;;;12.93;6.60;;;;;;;0.99;100.00;98705.81;1745867;81;21060;-70
2022/04/04 03:10:55;;;;;;;10.93;6.63;;;;;;;0.94;100.00;98702.27;1773943;81;21087;-70
2022/04/04 03:13:23;;;;;;;12.27;6.83;;;;;;;0.97;100.00;98706.45;1745879;80;21622;-69
2022/04/04 03:15:50;;;;;;;14.53;7.47;;;;;;;0.98;100.00;98703.32;1746308;81;21541;-71
2022/04/04 03:18:18;;;;;;;19.27;8.80;;;;;;;0.97;100.00;98705.12;1767121;81;21520;-70
2022/04/04 03:20:45;;;;;;;16.30;8.27;;;;;;;0.97;100.00;98705.12;1746621;81;21064;-69
2022/04/04 03:23:13;;;;;;;16.07;8.30;;;;;;;0.95;100.00;98703.09;1747550;81;21067;-70
2022/04/04 03:25:42;;;;;;;16.63;8.20;;;;;;;0.95;100.00;98703.92;1768747;81;21064;-70
2022/04/04 03:28:09;;;;;;;16.60;8.17;;;;;;;0.99;100.00;98708.97;1742760;81;21041;-69
2022/04/04 03:30:38;;;;;;;16.57;9.03;;;;;;;1.01;100.00;98703.01;1793205;79;21501;-70
2022/04/04 03:33:06;;;;;;;15.93;7.90;;;;;;;1.03;100.00;98703.73;1747533;81;21036;-70
2022/04/04 03:35:33;;;;;;;14.27;7.70;;;;;;;1.03;100.00;98709.89;1776532;81;21035;-70
2022/04/04 03:38:02;;;;;;;17.00;8.53;;;;;;;1.00;100.00;98707.50;1777693;80;21552;-70
2022/04/04 03:40:29;;;;;;;17.53;8.57;;;;;;;1.02;100.00;98708.20;1751128;81;21036;-69
2022/04/04 03:42:58;;;;;;;18.27;7.77;;;;;;;1.05;100.00;98708.42;1749328;81;21048;-69
2022/04/04 03:45:26;;;;;;;14.67;7.53;;;;;;;1.07;100.00;98706.45;1773457;80;21053;-70
2022/04/04 03:47:53;;;;;;;14.70;7.27;;;;;;;1.05;100.00;98711.08;1776117;80;21052;-69
2022/04/04 03:50:20;;;;;;;14.97;7.60;;;;;;;1.03;100.00;98709.89;1749008;80;21052;-70
2022/04/04 03:52:51;;;;;;;15.30;6.93;;;;;;;1.06;100.00;98711.41;1775703;80;21096;-69
2022/04/04 03:55:18;;;;;;;14.10;7.27;;;;;;;1.04;100.00;98715.55;1723722;80;21038;-69
2022/04/04 03:57:48;;;;;;;13.77;7.10;;;;;;;1.06;100.00;98714.08;1746844;82;21037;-70
2022/04/04 04:00:16;;;;;;;15.77;8.03;;;;;;;1.08;100.00;98716.09;1729333;82;21045;-69
2022/04/04 04:02:44;;;;;;;12.77;7.20;;;;;;;1.08;100.00;98714.30;1750517;81;21065;-69
2022/04/04 04:05:12;;;;;;;14.67;6.67;;;;;;;1.11;100.00;98722.47;1750394;82;21502;-69
2022/04/04 04:07:39;;;;;;;12.27;6.23;;;;;;;1.10;100.00;98722.14;1705690;82;21602;-70
2022/04/04 04:10:09;;;;;;;9.40;5.20;;;;;;;1.09;100.00;98724.45;1729392;82;21046;-70
2022/04/04 04:12:41;;;;;;;7.73;4.93;;;;;;;1.10;100.00;98723.47;1749570;82;21040;-70
2022/04/04 04:15:15;;;;;;;7.47;4.70;;;;;;;1.10;100.00;98727.47;1706481;84;21086;-69
2022/04/04 04:17:43;;;;;;;9.23;5.10;;;;;;;1.10;100.00;98739.45;1686203;84;21575;-70
2022/04/04 04:20:19;;;;;;;7.73;4.57;;;;;;;1.08;100.00;98734.73;1686804;84;21051;-70
2022/04/04 04:22:55;;;;;;;12.53;5.40;;;;;;;1.08;100.00;98737.39;1708771;84;21059;-69
2022/04/04 04:25:24;;;;;;;11.70;5.77;;;;;;;1.07;100.00;98735.73;1687144;84;21090;-69
2022/04/04 04:27:52;;;;;;;8.83;5.20;;;;;;;1.10;100.00;98744.27;1710819;83;21050;-70
2022/04/04 04:30:20;;;;;;;8.37;5.03;;;;;;;1.11;100.00;98747.77;1686611;84;21568;-70
2022/04/04 04:32:51;;;;;;;9.00;5.53;;;;;;;1.09;100.00;98747.08;1688365;83;21058;-69
2022/04/04 04:35:18;;;;;;;8.43;5.57;;;;;;;1.08;100.00;98756.89;1688794;83;21066;-66
2022/04/04 04:37:45;;;;;;;13.33;6.23;;;;;;;1.10;100.00;98757.59;1710131;83;21090;-66
2022/04/04 04:40:13;;;;;;;9.83;5.57;;;;;;;1.14;100.00;98761.63;1708139;83;21027;-69
2022/04/04 04:42:40;;;;;;;12.10;6.23;;;;;;;1.20;100.00;98762.05;1684991;84;21571;-67
2022/04/04 04:45:08;;;;;;;9.73;5.83;;;;;;;1.25;100.00;98777.11;1685254;84;21543;-69
2022/04/04 04:47:36;;;;;;;11.57;6.00;;;;;;;1.27;100.00;98766.66;1685510;83;21039;-69
2022/04/04 04:50:06;;;;;;;11.40;6.43;;;;;;;1.30;100.00;98766.87;1670968;86;21098;-68
2022/04/04 04:52:35;;;;;;;10.67;6.40;;;;;;;1.27;100.00;98766.66;1668989;85;21013;-69
2022/04/04 04:55:06;;;;;;;11.90;6.33;;;;;;;1.26;100.00;98774.31;1704853;83;21071;-69
2022/04/04 04:57:33;;;;;;;11.03;6.43;;;;;;;1.26;100.00;98789.46;1666343;85;21084;-69
2022/04/04 05:00:03;;;;;;;12.03;6.70;;;;;;;1.25;100.00;98787.77;1693679;84;21021;-69
2022/04/04 05:02:30;;;;;;;11.03;6.63;;;;;;;1.26;100.00;98787.63;1691551;84;21112;-70
2022/04/04 05:04:59;;;;;;;12.67;7.20;;;;;;;1.24;100.00;98795.39;1672255;84;21089;-69
2022/04/04 05:07:27;;;;;;;14.30;8.10;;;;;;;1.25;100.00;98803.74;1689732;84;21061;-70
2022/04/04 05:09:54;;;;;;;16.63;8.13;;;;;;;1.21;100.00;98805.02;1699577;83;21052;-69
2022/04/04 05:12:21;;;;;;;14.10;7.87;;;;;;;1.25;100.00;98812.56;1700061;83;21092;-67
2022/04/04 05:14:49;;;;;;;13.90;8.47;;;;;;;1.29;100.00;98813.12;1748575;81;21036;-69
2022/04/04 05:17:16;;;;;;;13.67;8.10;;;;;;;1.29;100.00;98823.30;1750387;81;21079;-68
2022/04/04 05:19:43;;;;;;;15.50;8.10;;;;;;;1.28;100.00;98818.95;1773940;81;21074;-71
2022/04/04 05:22:10;;;;;;;13.93;8.03;;;;;;;1.26;100.00;98822.75;1747597;81;21495;-69
2022/04/04 05:24:38;;;;;;;13.20;7.43;;;;;;;1.25;100.00;98830.38;1777236;80;21527;-69
2022/04/04 05:27:05;;;;;;;14.70;7.87;;;;;;;1.25;100.00;98828.55;1774314;80;21054;-68
2022/04/04 05:29:32;;;;;;;17.27;8.77;;;;;;;1.26;100.00;98824.91;1773515;80;21067;-70
2022/04/04 05:32:00;;;;;;;14.97;8.00;;;;;;;1.26;100.00;98830.73;1775672;81;21051;-69
2022/04/04 05:34:28;;;;;;;15.13;8.93;;;;;;;1.24;100.00;98829.55;1777035;80;21481;-70
2022/04/04 05:36:55;;;;;;;15.87;8.67;;;;;;;1.23;100.00;98841.66;1776365;80;22161;-71
2022/04/04 05:39:22;;;;;;;15.63;9.07;;;;;;;1.21;100.00;98840.47;1780607;80;21204;-70
2022/04/04 05:41:52;;;;;;;14.40;8.50;;;;;;;1.24;100.00;98852.64;1775031;80;21537;-70
2022/04/04 05:44:19;;;;;;;14.43;8.47;;;;;;;1.21;100.00;98863.60;1745013;81;21541;-69
2022/04/04 05:46:47;;;;;;;13.87;7.93;;;;;;;1.24;100.00;98872.62;1765123;81;21603;-69
2022/04/04 05:49:15;;;;;;;10.20;7.07;;;;;;;1.22;100.00;98891.89;1776692;80;21043;-69
2022/04/04 05:51:42;;;;;;;11.00;7.10;;;;;;;1.09;100.00;98898.33;1749484;80;21035;-69
2022/04/04 05:54:09;;;;;;;11.17;7.30;;;;;;;0.97;100.00;98899.94;1735584;82;21086;-69
2022/04/04 05:56:37;;;;;;;10.40;6.97;;;;;;;0.88;100.00;98910.91;1729166;82;21116;-69
2022/04/04 05:59:05;;;;;;;14.73;7.00;;;;;;;0.78;100.00;98919.35;1718102;82;21724;-70
2022/04/04 06:01:33;;;;;;;9.60;6.70;;;;;;;0.69;100.00;98935.64;1754396;80;21011;-69
2022/04/04 06:04:00;;;;;;;11.90;7.23;;;;;;;0.65;100.00;98937.73;1748141;81;21018;-70
2022/04/04 06:06:27;;;;;;;11.63;7.87;;;;;;;0.60;100.00;98935.95;1754086;80;21101;-69
2022/04/04 06:08:55;;;;;;;11.60;7.57;;;;;;;0.59;100.00;98942.27;1752362;80;21094;-69
2022/04/04 06:11:24;;;;;;;11.53;7.60;;;;;;;0.57;100.00;98954.88;1764783;80;21027;-69
2022/04/04 06:13:52;;;;;;;13.73;7.67;;;;;;;0.57;100.00;98950.88;1750172;81;21504;-70
2022/04/04 06:16:18;;;;;;;10.93;6.87;;;;;;;0.57;100.00;98950.88;1748966;80;20993;-68
2022/04/04 06:18:50;;;;;;;12.53;7.63;;;;;;;0.57;100.00;98952.22;1742706;81;21581;-67
2022/04/04 06:21:17;;;;;;;71.53;55.03;;;;;;;0.58;100.00;98952.55;1776875;80;21034;-69
2022/04/04 06:23:44;;;;;;;12.87;8.13;;;;;;;0.61;100.00;98956.28;1749832;80;21015;-68
2022/04/04 06:26:12;;;;;;;11.47;7.60;;;;;;;0.66;100.00;98956.72;1774658;80;21015;-70
2022/04/04 06:28:39;;;;;;;13.57;7.30;;;;;;;0.73;100.00;98960.53;1772052;81;21089;-68
2022/04/04 06:31:06;;;;;;;14.50;9.33;;;;;;;0.80;100.00;98958.64;1769982;80;21047;-68
2022/04/04 06:33:34;;;;;;;12.97;7.40;;;;;;;0.91;100.00;98956.73;1752805;81;21055;-69
2022/04/04 06:36:01;;;;;;;13.90;8.23;;;;;;;1.02;100.00;98954.44;1772552;80;21575;-68
2022/04/04 06:38:29;;;;;;;10.47;6.63;;;;;;;1.12;100.00;98949.98;1746262;81;21082;-67
2022/04/04 06:40:59;;;;;;;12.10;7.10;;;;;;;1.21;100.00;98959.47;1774305;81;21555;-67
2022/04/04 06:43:26;;;;;;;11.03;6.43;;;;;;;1.25;100.00;98949.71;1774526;80;21492;-67
2022/04/04 06:45:54;;;;;;;9.97;6.57;;;;;;;1.31;100.00;98950.97;1774394;81;21094;-69
2022/04/04 06:48:22;;;;;;;10.23;6.93;;;;;;;1.37;100.00;98957.59;1774271;81;21023;-68
2022/04/04 06:50:49;;;;;;;13.57;7.43;;;;;;;1.41;100.00;98961.66;1774101;80;21082;-67
2022/04/04 06:53:20;;;;;;;14.80;8.07;;;;;;;1.43;100.00;98961.85;1766599;81;21019;-67
2022/04/04 06:55:47;;;;;;;10.03;6.07;;;;;;;1.48;100.00;98974.77;1768227;80;21030;-70
2022/04/04 06:58:14;;;;;;;9.33;5.23;;;;;;;1.61;100.00;98973.15;1750491;82;21018;-69
2022/04/04 07:00:42;;;;;;;9.03;5.67;;;;;;;1.71;100.00;98978.00;1750133;81;20998;-67
2022/04/04 07:03:10;;;;;;;8.00;5.20;;;;;;;1.81;100.00;98978.84;1750393;81;21010;-69
2022/04/04 07:05:37;;;;;;;13.40;6.90;;;;;;;1.85;100.00;98986.06;1726189;81;21034;-69
2022/04/04 07:08:06;;;;;;;8.97;4.63;;;;;;;1.88;100.00;98999.12;1750385;81;21101;-69
2022/04/04 07:10:34;;;;;;;7.93;4.80;;;;;;;1.90;100.00;99009.98;1723775;82;20978;-70
2022/04/04 07:15:33;;;;;;;10.13;5.20;;;;;;;1.94;100.00;99035.87;1631581;87;21090;-69
2022/04/04 07:18:01;;;;;;;11.63;4.83;;;;;;;2.02;100.00;99040.48;1620785;87;21087;-69
2022/04/04 07:20:32;;;;;;;7.37;4.70;;;;;;;2.03;100.00;99059.52;1617536;88;21147;-68
2022/04/04 07:22:59;;;;;;;12.87;7.60;;;;;;;2.07;100.00;99066.23;1623888;88;21183;-68
2022/04/04 07:25:28;;;;;;;21.13;13.27;;;;;;;2.22;100.00;99076.01;1624344;88;21609;-70
2022/04/04 07:27:55;;;;;;;23.00;11.90;;;;;;;2.43;100.00;99085.19;1642314;87;21072;-70
2022/04/04 07:30:23;;;;;;;14.97;8.37;;;;;;;2.56;100.00;99105.73;1643931;87;21591;-71
2022/04/04 07:32:51;;;;;;;23.00;11.60;;;;;;;2.69;100.00;99104.59;1647496;87;21520;-70
2022/04/04 07:35:20;;;;;;;8.80;4.77;;;;;;;2.83;100.00;99129.03;1647463;87;21134;-70
2022/04/04 07:37:48;;;;;;;6.47;4.60;;;;;;;2.99;100.00;99142.25;1618356;88;21219;-69
2022/04/04 07:40:18;;;;;;;15.97;9.40;;;;;;;3.19;100.00;99159.09;1618998;88;21094;-70
2022/04/04 07:42:46;;;;;;;16.53;7.47;;;;;;;3.50;100.00;99167.67;1588245;88;21485;-69
2022/04/04 07:45:15;;;;;;;13.00;6.00;;;;;;;4.01;100.00;99176.15;1658310;86;21610;-69
2022/04/04 07:47:43;;;;;;;13.23;7.43;;;;;;;4.43;100.00;99192.98;1656094;87;21007;-68
2022/04/04 07:50:11;;;;;;;17.60;8.13;;;;;;;4.53;100.00;99222.34;1650992;86;21671;-69
2022/04/04 07:52:40;;;;;;;17.17;7.80;;;;;;;4.26;100.00;99260.20;1645306;86;21190;-69
2022/04/04 07:55:09;;;;;;;18.33;7.60;;;;;;;3.83;100.00;99296.45;1651316;85;21050;-71
2022/04/04 07:57:38;;;;;;;18.20;8.50;;;;;;;3.52;100.00;99334.09;1657742;86;21115;-68
2022/04/04 08:00:08;;;;;;;17.50;8.70;;;;;;;3.25;100.00;99353.53;1620606;87;21543;-68
2022/04/04 08:02:35;;;;;;;17.80;8.03;;;;;;;3.21;100.00;99364.16;1656080;86;21070;-68
2022/04/04 08:07:32;;;;;;;16.63;7.50;;;;;;;3.49;100.00;99367.81;1615719;87;21096;-68
2022/04/04 08:10:01;;;;;;;15.43;7.40;;;;;;;3.64;100.00;99379.41;1613143;88;21087;-68
2022/04/04 08:12:29;;;;;;;17.57;8.47;;;;;;;3.77;100.00;99381.27;1579663;89;21126;-69
2022/04/04 08:14:59;;;;;;;20.80;9.60;;;;;;;3.83;100.00;99402.60;1547864;91;21746;-67
2022/04/04 08:17:28;;;;;;;25.20;12.10;;;;;;;3.88;100.00;99417.23;1570217;90;21621;-70
2022/04/04 08:19:55;;;;;;;16.33;8.07;;;;;;;3.95;100.00;99422.34;1666324;85;21066;-69
2022/04/04 08:22:22;;;;;;;20.00;10.13;;;;;;;4.18;100.00;99424.20;1656518;85;21012;-68
2022/04/04 08:24:53;;;;;;;17.13;7.63;;;;;;;4.49;100.00;99431.14;1630457;87;21079;-71
2022/04/04 08:27:22;;;;;;;18.73;7.53;;;;;;;4.82;100.00;99436.42;1666477;85;21581;-70
2022/04/04 08:29:49;;;;;;;15.13;6.90;;;;;;;5.16;100.00;99447.02;1687962;84;21796;-70
2022/04/04 08:32:18;;;;;;;15.07;6.87;;;;;;;5.40;100.00;99459.34;1655938;86;21607;-69
2022/04/04 08:34:46;;;;;;;13.27;6.13;;;;;;;5.38;100.00;99493.98;1720358;83;21064;-68
2022/04/04 08:37:13;;;;;;;10.07;6.00;;;;;;;5.14;100.00;99508.30;1712540;83;21064;-69
2022/04/04 08:39:44;;;;;;;10.83;5.93;;;;;;;4.87;100.00;99534.60;1709767;83;21103;-70
2022/04/04 08:42:11;;;;;;;15.80;6.93;;;;;;;4.74;100.00;99526.87;1711939;83;21039;-69
2022/04/04 08:44:39;;;;;;;13.63;6.20;;;;;;;4.72;100.00;99524.00;1683921;84;21086;-69
2022/04/04 08:47:06;;;;;;;14.57;6.70;;;;;;;4.95;100.00;99523.14;1687553;83;21047;-69
2022/04/04 08:49:34;;;;;;;13.67;6.50;;;;;;;5.19;100.00;99524.42;1716742;83;21540;-68
2022/04/04 08:52:02;;;;;;;12.50;6.10;;;;;;;5.18;100.00;99538.33;1713557;83;21066;-70
2022/04/04 08:54:30;;;;;;;13.80;6.73;;;;;;;5.10;100.00;99542.27;1722184;82;21022;-69
2022/04/04 08:56:57;;;;;;;13.53;6.77;;;;;;;5.07;100.00;99551.94;1709055;82;21091;-68
2022/04/04 08:59:24;;;;;;;12.83;7.20;;;;;;;5.01;100.00;99543.13;1720882;82;21098;-72
2022/04/04 09:01:51;;;;;;;13.50;7.23;;;;;;;4.95;100.00;99540.05;1720835;82;21050;-71
2022/04/04 09:04:19;;;;;;;26.50;14.50;;;;;;;4.94;100.00;99540.22;1719038;82;21095;-69
2022/04/04 09:06:55;;;;;;;17.80;7.20;;;;;;;4.93;100.00;99538.52;1743253;82;21083;-70
2022/04/04 09:09:29;;;;;;;15.43;7.27;;;;;;;4.88;100.00;99544.31;1745655;82;21503;-70
2022/04/04 09:12:10;;;;;;;;;;;;;;;4.85;100.00;99554.00;1735352;81;21128;-68
2022/04/04 09:14:49;;;;;;;11.73;6.17;;;;;;;4.93;100.00;99554.09;1746923;82;20156;-68
2022/04/04 09:17:18;;;;;;;12.57;6.90;;;;;;;5.03;100.00;99560.77;1750865;82;21088;-69
2022/04/04 09:19:46;;;;;;;10.63;6.40;;;;;;;5.19;100.00;99570.86;1750977;82;21513;-68
2022/04/04 09:22:20;;;;;;;15.83;7.73;;;;;;;5.19;100.00;99578.03;1750523;82;21576;-69
2022/04/04 09:24:57;;;;;;;13.23;6.83;;;;;;;5.21;100.00;99580.93;1749990;82;21573;-68
2022/04/04 09:27:32;;;;;;;17.97;9.70;;;;;;;5.23;100.00;99586.98;1748502;82;21562;-70
2022/04/04 09:30:07;;;;;;;17.70;7.37;;;;;;;5.10;100.00;99598.05;1749017;82;21045;-69
2022/04/04 09:32:40;;;;;;;13.63;7.07;;;;;;;4.99;100.00;99600.05;1752141;81;21033;-67
2022/04/04 09:35:15;;;;;;;16.43;7.73;;;;;;;4.95;100.00;99601.67;1749129;82;21100;-69
2022/04/04 09:37:49;;;;;;;21.17;8.97;;;;;;;4.83;100.00;99615.39;1750321;81;21080;-69
2022/04/04 09:40:24;;;;;;;19.33;8.53;;;;;;;4.79;100.00;99616.17;1684498;84;21149;-68
2022/04/04 09:42:57;;;;;;;17.23;8.37;;;;;;;4.81;100.00;99623.57;1680073;85;21132;-69
2022/04/04 09:45:28;;;;;;;13.57;6.40;;;;;;;4.98;100.00;99619.81;1686842;85;21569;-70
2022/04/04 09:48:09;;;;;;;;;;;;;;;5.34;100.00;99628.84;1629657;86;21066;-68
2022/04/04 09:50:49;;;;;;;16.57;6.80;;;;;;;5.55;100.00;99640.67;1652690;86;20154;-70
2022/04/04 09:53:24;;;;;;;16.00;7.47;;;;;;;5.57;100.00;99648.08;1651324;86;21106;-68
2022/04/04 09:56:00;;;;;;;19.73;9.13;;;;;;;5.45;100.00;99653.28;1655167;86;21052;-69
2022/04/04 09:58:30;;;;;;;18.63;8.90;;;;;;;5.24;100.00;99636.94;1630405;87;21110;-69
2022/04/04 10:00:59;;;;;;;23.13;9.73;;;;;;;5.04;100.00;99632.62;1632831;86;21098;-68
2022/04/04 10:03:26;;;;;;;20.87;8.73;;;;;;;4.90;100.00;99629.39;1627632;87;21603;-71
2022/04/04 10:05:56;;;;;;;12.83;6.10;;;;;;;4.89;100.00;99621.02;1573851;90;22427;-69
2022/04/04 10:08:25;;;;;;;17.97;7.77;;;;;;;4.95;100.00;99628.47;1570705;90;21643;-68
2022/04/04 10:10:54;;;;;;;16.43;7.10;;;;;;;5.01;100.00;99644.95;1594973;89;21123;-69
2022/04/04 10:13:23;;;;;;;16.90;7.93;;;;;;;5.01;100.00;99649.84;1592897;89;21083;-68
2022/04/04 10:15:50;;;;;;;17.70;8.53;;;;;;;4.99;100.00;99664.36;1602328;89;21115;-69
2022/04/04 10:18:18;;;;;;;20.87;9.30;;;;;;;4.93;100.00;99676.00;1573565;89;21076;-68
2022/04/04 10:20:52;;;;;;;16.47;7.70;;;;;;;4.90;100.00;99674.11;1593574;89;21676;-69
2022/04/04 10:23:15;;;;;;;12.47;6.33;;;;;;;4.87;100.00;99675.72;1604057;89;21126;-69
2022/04/04 10:25:44;;;;;;;10.93;6.07;;;;;;;4.95;100.00;99666.48;1586034;90;21611;-70
2022/04/04 10:28:12;;;;;;;11.13;5.80;;;;;;;5.35;100.00;99665.87;1601873;89;21132;-69
2022/04/04 10:30:40;;;;;;;13.83;7.00;;;;;;;5.69;100.00;99667.00;1518908;90;21146;-70
2022/04/04 10:33:24;;;;;;;14.80;6.40;;;;;;;5.77;100.00;99681.03;1601286;89;21097;-70
2022/04/04 10:36:01;;;;;;;;;;;;;;;5.75;100.00;99678.97;1582940;85;21059;-71
2022/04/04 10:38:31;;;;;;;15.47;7.33;;;;;;;5.59;100.00;99693.52;1711779;83;20122;-71
2022/04/04 10:41:05;;;;;;;19.23;7.67;;;;;;;5.44;100.00;99701.22;1710260;84;21064;-69
2022/04/04 10:43:38;;;;;;;15.13;7.30;;;;;;;5.33;100.00;99698.22;1710274;84;21041;-68
2022/04/04 10:46:12;;;;;;;17.50;8.10;;;;;;;5.27;100.00;99706.32;1710197;83;21078;-70
2022/04/04 10:48:56;;;;;;;14.27;7.47;;;;;;;5.21;100.00;99700.21;1686841;84;21045;-69
2022/04/04 10:51:30;;;;;;;16.80;6.90;;;;;;;5.22;100.00;99702.39;1729955;80;21050;-69
2022/04/04 10:54:02;;;;;;;12.57;6.50;;;;;;;5.17;100.00;99709.55;1765384;81;21045;-73
2022/04/04 10:56:42;;;;;;;17.13;8.23;;;;;;;5.25;100.00;99705.63;1776197;80;21086;-69
2022/04/04 10:59:23;;;;;;;14.07;6.27;;;;;;;5.53;100.00;99697.64;1750424;81;21101;-69
2022/04/04 11:01:56;;;;;;;12.37;6.50;;;;;;;6.10;100.00;99701.56;1752773;82;21082;-69
2022/04/04 11:07:37;;;;;;;9.93;5.60;;;;;;;6.70;100.00;99692.93;1704888;81;21002;-70
2022/04/04 11:10:05;;;;;;;11.77;6.13;;;;;;;7.16;100.00;99714.30;1745804;82;21598;-70
2022/04/04 11:12:28;;;;;;;11.10;5.93;;;;;;;6.89;100.00;99710.73;1717104;81;21042;-69
2022/04/04 11:15:07;;;;;;;13.00;6.60;;;;;;;6.59;100.00;99738.34;1751596;81;21038;-69
2022/04/04 11:17:57;;;;;;;14.33;6.10;;;;;;;6.36;100.00;99726.36;1729977;81;21085;-69
2022/04/04 11:20:32;;;;;;;12.97;6.73;;;;;;;6.14;100.00;99728.95;1732547;80;21004;-69
2022/04/04 11:23:09;;;;;;;16.87;7.50;;;;;;;6.06;100.00;99730.55;1718439;82;21099;-69
2022/04/04 11:25:34;;;;;;;15.57;7.07;;;;;;;6.17;100.00;99720.09;1744081;82;21467;-70
2022/04/04 11:28:01;;;;;;;13.40;7.07;;;;;;;6.50;100.00;99711.53;1728579;82;21081;-71
2022/04/04 11:30:28;;;;;;;12.17;5.87;;;;;;;6.75;100.00;99714.81;1750191;82;21031;-71
2022/04/04 11:32:57;;;;;;;10.67;5.60;;;;;;;7.04;100.00;99710.50;1725272;82;21049;-70
2022/04/04 11:35:27;;;;;;;8.00;5.10;;;;;;;7.20;100.00;99719.70;1686572;83;21544;-70
2022/04/04 11:37:58;;;;;;;10.43;5.87;;;;;;;7.10;100.00;99731.91;1714004;83;20963;-70
2022/04/04 11:40:34;;;;;;;14.23;5.77;;;;;;;6.79;100.00;99743.56;1712094;82;21069;-69
2022/04/04 11:43:03;;;;;;;13.57;6.13;;;;;;;6.57;100.00;99756.94;1734884;82;21062;-71
2022/04/04 11:45:35;;;;;;;11.23;6.17;;;;;;;6.44;100.00;99755.46;1688996;83;21059;-69